Daybreak2
, South Jordan
Last Weather Update:11/25/2011 7:00:00 AM
Date
ETo
ETc
Rain
Irrigation
Req
Temp
Max
Temp
Min
Temp
Avg
Avg RH
Avg Wind
Avg Solar
inches
inches
incehs
inches
F
F
F
%
%
watts/m2
10/1/2011 0.21" 0.12" 0.11" 0.01" 81.9° 61.6° 71.6° 29.9% 8.5 MPH 163.5w/m2
10/2/2011 0.21" 0.12" 0.09" 0.03" 80.9° 59.3° 69.9° 34.8% 8.6 MPH 190.6w/m2
10/3/2011 0.20" 0.11" 0.06" 0.05" 80.0° 58.7° 68.3° 40.9% 7.9 MPH 195.7w/m2
10/4/2011 0.16" 0.08" 0.22" -0.14" 73.1° 56.0° 64.3° 53.1% 7.3 MPH 193.7w/m2
10/5/2011 0.07" 0.04" 0.47" -0.43" 60.6° 39.7° 53.2° 68.2% 10.5 MPH 51.6w/m2
10/6/2011 0.04" 0.02" 0.55" -0.53" 45.9° 33.9° 39.0° 83.3% 6.2 MPH 80.6w/m2
10/7/2011 0.04" 0.02" 0.08" -0.06" 43.6° 36.3° 40.2° 77.1% 6.4 MPH 50.8w/m2
10/8/2011 0.07" 0.03" 0.15" -0.12" 51.2° 37.8° 44.0° 80.6% 6.0 MPH 131.2w/m2
10/9/2011 0.11" 0.05" 0.02" 0.03" 59.6° 38.8° 47.8° 66.6% 4.9 MPH 197.9w/m2
10/10/2011 0.11" 0.05" 0.14" -0.09" 62.0° 42.2° 51.2° 59.0% 7.5 MPH 152.5w/m2
10/11/2011 0.09" 0.03" 0.00" 0.03" 64.1° 47.1° 54.6° 62.0% 6.4 MPH 112.5w/m2
10/12/2011 0.12" 0.04" 0.00" 0.04" 64.4° 42.9° 53.8° 47.7% 4.7 MPH 180.1w/m2
10/13/2011 0.13" 0.05" 0.00" 0.05" 71.9° 45.0° 56.5° 45.2% 6.5 MPH 176.0w/m2
10/14/2011 0.15" 0.05" 0.00" 0.05" 75.3° 47.6° 61.2° 39.5% 5.7 MPH 182.2w/m2
10/15/2011 0.17" 0.05" 0.00" 0.05" 77.4° 57.8° 65.3° 35.1% 7.8 MPH 169.8w/m2
10/16/2011 0.13" 0.04" 0.02" 0.02" 72.6° 48.0° 61.2° 42.4% 6.8 MPH 125.5w/m2
10/17/2011 0.10" 0.03" 0.04" -0.01" 56.4° 42.9° 50.3° 63.7% 6.6 MPH 180.7w/m2
10/18/2011 0.10" 0.03" 0.00" 0.03" 59.6° 39.1° 49.0° 56.8% 4.8 MPH 177.4w/m2
10/19/2011 0.12" 0.03" 0.00" 0.03" 64.2° 42.4° 52.2° 49.1% 6.2 MPH 174.4w/m2
10/20/2011 0.12" 0.02" 0.00" 0.02" 66.2° 42.5° 53.9° 49.2% 5.3 MPH 168.4w/m2
10/21/2011 0.13" 0.02" 0.00" 0.02" 67.0° 47.2° 56.5° 43.6% 6.1 MPH 165.5w/m2
10/22/2011 0.11" 0.02" 0.00" 0.02" 64.3° 43.1° 54.4° 49.3% 5.1 MPH 161.2w/m2
10/23/2011 0.12" 0.02" 0.00" 0.02" 69.4° 43.4° 55.2° 43.6% 5.5 MPH 169.4w/m2
10/24/2011 0.15" 0.02" 0.00" 0.02" 72.0° 49.6° 58.8° 37.4% 8.7 MPH 157.8w/m2
10/25/2011 0.08" 0.01" 0.00" 0.01" 52.9° 40.0° 45.5° 55.6% 7.3 MPH 98.8w/m2
10/26/2011 0.09" 0.01" 0.00" 0.01" 45.3° 34.1° 39.2° 48.8% 9.0 MPH 163.5w/m2
10/27/2011 0.08" 0.01" 0.00" 0.01" 48.9° 29.2° 38.7° 41.1% 4.7 MPH 163.1w/m2
10/28/2011 0.09" 0.01" 0.00" 0.01" 54.8° 30.8° 41.9° 38.5% 4.9 MPH 151.4w/m2
10/29/2011 0.08" 0.00" 0.00" 0.00" 59.0° 37.5° 45.6° 33.7% 6.1 MPH 99.9w/m2
10/30/2011 0.09" 0.00" 0.00" 0.00" 62.2° 38.0° 48.4° 48.4% 4.9 MPH 155.5w/m2
10/31/2011 0.11" 0.00" 0.00" 0.00" 65.1° 41.4° 51.8° 43.3% 6.9 MPH 151.6w/m2
Totals: 3.58" 1.11" 1.95" -0.84" 81.9° 29.2° 53.0° 50.6% 6.6 MPH 151.4w/m2